createdAt,value
2019-03-11T00:00:53.786Z,12.54
2019-03-11T00:03:20.096Z,12.59
2019-03-11T00:05:46.408Z,12.78
2019-03-11T00:08:12.727Z,12.96
2019-03-11T00:10:39.042Z,12.99
2019-03-11T00:13:05.350Z,12.87
2019-03-11T00:15:31.665Z,12.61
2019-03-11T00:17:57.987Z,12.49
2019-03-11T00:20:24.290Z,12.48
2019-03-11T00:22:50.605Z,12.59
2019-03-11T00:25:16.914Z,12.77
2019-03-11T00:27:43.228Z,12.98
2019-03-11T00:30:09.545Z,13.06
2019-03-11T00:32:35.897Z,13.03
2019-03-11T00:35:02.208Z,12.98
2019-03-11T00:37:28.514Z,12.82
2019-03-11T00:39:54.829Z,12.70
2019-03-11T00:42:21.132Z,12.57
2019-03-11T00:44:47.447Z,12.55
2019-03-11T00:47:13.759Z,12.53
2019-03-11T00:49:40.071Z,12.58
2019-03-11T00:52:06.435Z,12.65
2019-03-11T00:54:32.780Z,12.67
2019-03-11T00:56:59.013Z,12.68
2019-03-11T00:59:25.329Z,12.69
2019-03-11T01:01:51.639Z,12.67
2019-03-11T01:04:17.958Z,12.60
2019-03-11T01:06:44.274Z,12.52
2019-03-11T01:09:10.586Z,12.51
2019-03-11T01:11:36.903Z,12.46
2019-03-11T01:14:03.221Z,12.42
2019-03-11T01:16:29.530Z,12.34
2019-03-11T01:18:55.843Z,12.24
2019-03-11T01:21:22.153Z,12.13
2019-03-11T01:23:48.470Z,11.89
2019-03-11T01:26:14.785Z,11.61
2019-03-11T01:28:41.099Z,11.37
2019-03-11T01:31:07.410Z,11.36
2019-03-11T01:33:33.722Z,11.22
2019-03-11T01:36:00.074Z,11.12
2019-03-11T01:38:26.359Z,11.00
2019-03-11T01:40:52.669Z,10.97
2019-03-11T01:43:18.982Z,10.92
2019-03-11T01:45:45.304Z,10.85
2019-03-11T01:48:11.626Z,10.77
2019-03-11T01:50:37.938Z,10.71
2019-03-11T01:53:04.254Z,10.66
2019-03-11T01:55:30.571Z,10.65
2019-03-11T01:57:56.878Z,10.66
2019-03-11T02:00:23.180Z,10.66
2019-03-11T02:02:49.495Z,10.69
2019-03-11T02:05:15.806Z,10.75
2019-03-11T02:07:42.122Z,10.80
2019-03-11T02:10:08.428Z,10.83
2019-03-11T02:12:34.742Z,10.82
2019-03-11T02:15:01.062Z,10.78
2019-03-11T02:17:27.477Z,10.79
2019-03-11T02:19:53.786Z,10.81
2019-03-11T02:22:20.100Z,10.81
2019-03-11T02:24:46.405Z,10.77
2019-03-11T02:27:12.733Z,10.76
2019-03-11T02:29:39.046Z,10.68
2019-03-11T02:32:05.345Z,10.58
2019-03-11T02:34:31.665Z,10.50
2019-03-11T02:36:57.997Z,10.52
2019-03-11T02:39:24.307Z,10.45
2019-03-11T02:41:50.612Z,10.47
2019-03-11T02:44:16.926Z,10.42
2019-03-11T02:46:43.237Z,10.35
2019-03-11T02:49:09.556Z,10.39
2019-03-11T02:51:35.875Z,10.31
2019-03-11T02:54:02.200Z,10.37
2019-03-11T02:56:28.549Z,10.44
2019-03-11T02:58:54.823Z,10.40
2019-03-11T03:01:21.139Z,10.29
2019-03-11T03:03:47.444Z,10.28
2019-03-11T03:06:13.754Z,10.20
2019-03-11T03:08:40.068Z,10.14
2019-03-11T03:11:06.375Z,10.11
2019-03-11T03:13:32.685Z,10.22
2019-03-11T03:15:59.007Z,10.47
2019-03-11T03:18:25.309Z,10.48
2019-03-11T03:20:51.631Z,10.45
2019-03-11T03:23:17.944Z,10.54
2019-03-11T03:25:44.249Z,10.61
2019-03-11T03:28:10.559Z,10.66
2019-03-11T03:30:36.893Z,10.73
2019-03-11T03:33:03.207Z,10.77
2019-03-11T03:35:29.505Z,10.66
2019-03-11T03:37:55.833Z,10.61
2019-03-11T03:40:22.134Z,10.62
2019-03-11T03:42:48.477Z,10.63
2019-03-11T03:45:14.756Z,10.62
2019-03-11T03:47:41.066Z,10.60
2019-03-11T03:50:07.386Z,10.64
2019-03-11T03:52:33.701Z,10.60
2019-03-11T03:55:00.010Z,10.60
2019-03-11T03:57:26.324Z,10.58
2019-03-11T03:59:52.635Z,10.51
2019-03-11T04:02:18.942Z,10.46
2019-03-11T04:04:45.248Z,10.44
2019-03-11T04:07:11.561Z,10.48
2019-03-11T04:09:37.873Z,10.50
2019-03-11T04:12:04.199Z,10.54
2019-03-11T04:14:30.545Z,10.53
2019-03-11T04:16:56.874Z,10.56
2019-03-11T04:19:23.198Z,10.56
2019-03-11T04:21:49.523Z,10.62
2019-03-11T04:24:15.836Z,10.67
2019-03-11T04:26:42.148Z,10.63
2019-03-11T04:29:08.451Z,10.63
2019-03-11T04:31:34.769Z,10.61
2019-03-11T04:34:01.078Z,10.58
2019-03-11T04:36:27.391Z,10.54
2019-03-11T04:38:53.695Z,10.51
2019-03-11T04:41:20.035Z,10.60
2019-03-11T04:43:46.342Z,10.66
2019-03-11T04:46:12.665Z,10.64
2019-03-11T04:48:38.980Z,10.68
2019-03-11T04:51:05.285Z,10.73
2019-03-11T04:53:31.613Z,10.79
2019-03-11T04:55:57.918Z,10.82
2019-03-11T04:58:24.235Z,10.90
2019-03-11T05:00:50.541Z,10.96
2019-03-11T05:03:16.858Z,11.01
2019-03-11T05:05:43.168Z,11.16
2019-03-11T05:08:09.493Z,11.21
2019-03-11T05:10:35.810Z,11.25
2019-03-11T05:13:02.120Z,11.21
2019-03-11T05:15:28.438Z,11.25
2019-03-11T05:17:54.747Z,11.25
2019-03-11T05:20:21.070Z,11.30
2019-03-11T05:22:47.404Z,11.36
2019-03-11T05:25:13.715Z,11.39
2019-03-11T05:27:40.031Z,11.46
2019-03-11T05:30:08.093Z,11.52
2019-03-11T05:32:33.109Z,11.62
2019-03-11T05:34:59.532Z,11.61
2019-03-11T05:37:25.814Z,11.58
2019-03-11T05:39:52.131Z,11.64
2019-03-11T05:42:18.449Z,11.72
2019-03-11T05:44:44.776Z,11.79
2019-03-11T05:47:11.121Z,11.90
2019-03-11T05:49:37.408Z,11.91
2019-03-11T05:52:03.717Z,11.94
2019-03-11T05:54:30.032Z,11.98
2019-03-11T05:56:58.967Z,12.02
2019-03-11T05:59:22.673Z,12.14
2019-03-11T06:01:48.989Z,12.10
2019-03-11T06:04:15.532Z,12.16
2019-03-11T06:06:41.846Z,12.18
2019-03-11T06:09:08.158Z,12.16
2019-03-11T06:11:34.498Z,12.14
2019-03-11T06:14:00.810Z,12.18
2019-03-11T06:16:27.135Z,12.34
2019-03-11T06:18:53.484Z,12.37
2019-03-11T06:21:19.825Z,12.27
2019-03-11T06:23:46.149Z,12.33
2019-03-11T06:26:12.423Z,12.65
2019-03-11T06:28:38.768Z,13.49
2019-03-11T06:31:05.057Z,13.66
2019-03-11T06:33:31.372Z,13.58
2019-03-11T06:35:57.742Z,13.62
2019-03-11T06:38:24.058Z,13.78
2019-03-11T06:40:50.526Z,14.00
2019-03-11T06:43:16.795Z,14.13
2019-03-11T06:45:43.109Z,14.13
2019-03-11T06:50:54.725Z,14.15
2019-03-11T06:53:21.044Z,14.22
2019-03-11T06:55:47.609Z,14.38
2019-03-11T06:58:13.957Z,14.21
2019-03-11T07:00:40.241Z,14.58
2019-03-11T07:03:06.549Z,15.00
2019-03-11T07:05:33.696Z,15.49
2019-03-11T07:08:00.065Z,15.63
2019-03-11T07:10:28.950Z,15.75
2019-03-11T07:12:55.256Z,16.12
2019-03-11T07:15:21.581Z,16.37
2019-03-11T07:17:47.897Z,16.86
2019-03-11T07:20:14.210Z,17.44
2019-03-11T07:22:40.561Z,17.77
2019-03-11T07:25:06.851Z,17.34
2019-03-11T07:27:33.173Z,17.46
2019-03-11T07:29:59.475Z,17.86
2019-03-11T07:32:25.828Z,18.15
2019-03-11T07:34:52.153Z,18.12
2019-03-11T07:37:18.538Z,18.12
2019-03-11T07:39:44.769Z,18.40
2019-03-11T07:42:11.357Z,18.44
2019-03-11T07:44:37.830Z,18.46
2019-03-11T07:47:13.308Z,18.56
2019-03-11T07:49:39.462Z,18.22
2019-03-11T07:52:05.822Z,18.13
2019-03-11T07:54:35.798Z,18.30
2019-03-11T07:56:58.446Z,18.32
2019-03-11T07:59:24.754Z,18.92
2019-03-11T08:01:51.066Z,18.99
2019-03-11T08:04:17.418Z,19.31
2019-03-11T08:06:43.740Z,19.68
2019-03-11T08:09:10.075Z,19.72
2019-03-11T08:11:36.402Z,19.28
2019-03-11T08:14:02.719Z,19.05
2019-03-11T08:16:29.535Z,19.29
2019-03-11T08:18:55.841Z,20.13
2019-03-11T08:21:22.134Z,20.38
2019-03-11T08:23:48.446Z,20.07
2019-03-11T08:26:14.753Z,20.38
2019-03-11T08:28:41.065Z,20.10
2019-03-11T08:31:07.387Z,20.21
2019-03-11T08:33:33.692Z,20.81
2019-03-11T08:36:00.010Z,20.55
2019-03-11T08:38:26.329Z,20.20
2019-03-11T08:40:52.655Z,20.67
2019-03-11T08:43:19.058Z,20.71
2019-03-11T08:45:45.348Z,20.68
2019-03-11T08:48:11.658Z,20.67
2019-03-11T08:50:38.014Z,20.47
2019-03-11T08:53:04.290Z,20.29
2019-03-11T08:55:30.616Z,20.54
2019-03-11T08:57:57.212Z,20.98
2019-03-11T09:00:23.521Z,21.40
2019-03-11T09:02:49.832Z,21.85
2019-03-11T09:05:16.211Z,22.14
2019-03-11T09:07:42.522Z,21.64
2019-03-11T09:10:08.854Z,21.20
2019-03-11T09:12:41.311Z,20.97
2019-03-11T09:15:07.638Z,20.91
2019-03-11T09:17:34.802Z,21.16
2019-03-11T09:20:00.349Z,21.17
2019-03-11T09:22:26.652Z,20.74
2019-03-11T09:24:52.985Z,20.70
2019-03-11T09:27:19.337Z,20.97
2019-03-11T09:29:45.659Z,20.97
2019-03-11T09:32:11.965Z,21.34
2019-03-11T09:34:38.294Z,21.35
2019-03-11T09:37:04.633Z,21.80
2019-03-11T09:39:30.957Z,21.89
2019-03-11T09:41:57.270Z,21.91
2019-03-11T09:44:23.602Z,21.99
2019-03-11T09:46:49.941Z,21.70
2019-03-11T09:49:16.282Z,21.15
2019-03-11T09:51:42.615Z,20.78
2019-03-11T09:54:08.942Z,19.83
2019-03-11T09:56:42.958Z,19.30
2019-03-11T09:59:01.565Z,18.78
2019-03-11T10:01:27.883Z,18.55
2019-03-11T10:03:54.190Z,18.35
2019-03-11T10:06:20.549Z,18.06
2019-03-11T10:08:46.857Z,17.94
2019-03-11T10:11:13.165Z,17.69
2019-03-11T10:13:39.495Z,17.43
2019-03-11T10:16:05.945Z,17.28
2019-03-11T10:18:32.156Z,17.14
2019-03-11T10:20:58.537Z,16.95
2019-03-11T10:23:32.023Z,16.90
2019-03-11T10:25:51.310Z,17.07
2019-03-11T10:28:17.640Z,17.05
2019-03-11T10:30:43.949Z,16.92
2019-03-11T10:33:10.286Z,16.90
2019-03-11T10:35:36.620Z,17.15
2019-03-11T10:38:02.919Z,17.25
2019-03-11T10:40:29.232Z,17.31
2019-03-11T10:42:55.554Z,17.51
2019-03-11T10:45:30.534Z,17.61
2019-03-11T10:47:48.618Z,17.38
2019-03-11T10:50:14.929Z,17.58
2019-03-11T10:52:41.258Z,17.38
2019-03-11T10:55:07.570Z,17.26
2019-03-11T10:57:33.910Z,17.10
2019-03-11T11:00:00.391Z,16.91
2019-03-11T11:02:26.626Z,16.83
2019-03-11T11:04:53.005Z,17.00
2019-03-11T11:07:19.346Z,18.15
2019-03-11T11:09:45.625Z,17.88
2019-03-11T11:12:11.967Z,17.72
2019-03-11T11:14:38.317Z,18.02
2019-03-11T11:17:04.587Z,18.24
2019-03-11T11:19:30.913Z,18.17
2019-03-11T11:21:57.220Z,17.96
2019-03-11T11:24:23.532Z,17.64
2019-03-11T11:26:49.854Z,18.20
2019-03-11T11:29:16.156Z,18.77
2019-03-11T11:31:42.476Z,18.45
2019-03-11T11:34:08.787Z,18.52
2019-03-11T11:36:35.097Z,18.57
2019-03-11T11:39:01.405Z,18.31
2019-03-11T11:41:27.729Z,18.26
2019-03-11T11:43:54.047Z,18.59
2019-03-11T11:46:20.358Z,18.82
2019-03-11T11:48:46.681Z,19.73
2019-03-11T11:51:12.995Z,20.50
2019-03-11T11:53:39.299Z,20.66
2019-03-11T11:56:05.608Z,21.31
2019-03-11T11:58:31.912Z,21.61
2019-03-11T12:00:58.226Z,21.65
2019-03-11T12:03:24.538Z,21.81
2019-03-11T12:05:50.879Z,21.60
2019-03-11T12:08:17.193Z,20.46
2019-03-11T12:10:43.496Z,20.19
2019-03-11T12:13:09.825Z,20.34
2019-03-11T12:15:36.134Z,19.98
2019-03-11T12:18:02.444Z,19.53
2019-03-11T12:20:28.761Z,19.05
2019-03-11T12:22:55.132Z,18.75
2019-03-11T12:25:21.449Z,18.68
2019-03-11T12:27:53.559Z,18.52
2019-03-11T12:30:14.078Z,18.38
2019-03-11T12:32:40.412Z,18.45
2019-03-11T12:35:06.728Z,18.50
2019-03-11T12:37:33.042Z,18.60
2019-03-11T12:39:59.352Z,18.62
2019-03-11T12:42:25.679Z,18.60
2019-03-11T12:44:53.736Z,18.79
2019-03-11T12:47:18.345Z,19.32
2019-03-11T12:49:44.677Z,19.98
2019-03-11T12:52:10.988Z,19.85
2019-03-11T12:54:37.309Z,20.50
2019-03-11T12:57:03.622Z,21.08
2019-03-11T12:59:29.933Z,20.93
2019-03-11T13:01:56.255Z,21.06
2019-03-11T13:04:22.564Z,21.05
2019-03-11T13:06:48.874Z,20.19
2019-03-11T13:09:15.189Z,20.33
2019-03-11T13:11:41.497Z,20.05
2019-03-11T13:14:07.829Z,19.43
2019-03-11T13:16:34.138Z,18.85
2019-03-11T13:19:00.447Z,18.61
2019-03-11T13:21:26.763Z,18.35
2019-03-11T13:23:53.069Z,18.20
2019-03-11T13:26:19.545Z,18.04
2019-03-11T13:28:48.378Z,17.93
2019-03-11T13:31:14.680Z,18.00
2019-03-11T13:33:40.988Z,17.78
2019-03-11T13:36:07.334Z,17.94
2019-03-11T13:38:34.612Z,18.08
2019-03-11T13:40:59.924Z,18.17
2019-03-11T13:43:26.237Z,17.90
2019-03-11T13:45:52.557Z,17.83
2019-03-11T13:48:18.888Z,17.87
2019-03-11T13:50:45.196Z,17.85
2019-03-11T13:53:11.507Z,17.83
2019-03-11T13:55:37.811Z,17.94
2019-03-11T13:58:04.116Z,18.00
2019-03-11T14:00:30.428Z,18.04
2019-03-11T14:02:56.731Z,17.82
2019-03-11T14:05:23.099Z,17.50
2019-03-11T14:07:49.414Z,17.22
2019-03-11T14:10:15.727Z,16.98
2019-03-11T14:12:42.076Z,16.88
2019-03-11T14:15:08.438Z,16.56
2019-03-11T14:17:34.667Z,16.23
2019-03-11T14:20:00.971Z,16.07
2019-03-11T14:22:27.422Z,16.00
2019-03-11T14:24:53.789Z,15.71
2019-03-11T14:27:20.097Z,15.54
2019-03-11T14:29:46.409Z,15.44
2019-03-11T14:32:12.915Z,15.33
2019-03-11T14:34:39.035Z,15.21
2019-03-11T14:37:05.390Z,15.16
2019-03-11T14:39:31.700Z,14.96
2019-03-11T14:41:58.003Z,14.89
2019-03-11T14:44:24.319Z,14.81
2019-03-11T14:46:50.621Z,14.56
2019-03-11T14:49:16.947Z,14.31
2019-03-11T14:51:43.251Z,14.17
2019-03-11T14:54:09.628Z,14.01
2019-03-11T14:56:35.929Z,13.88
2019-03-11T14:59:02.264Z,13.74
2019-03-11T15:01:28.577Z,13.54
2019-03-11T15:03:54.888Z,13.50
2019-03-11T15:06:21.218Z,13.58
2019-03-11T15:08:47.514Z,13.56
2019-03-11T15:11:13.841Z,13.42
2019-03-11T15:13:40.194Z,13.21
2019-03-11T15:16:06.525Z,12.73
2019-03-11T15:18:32.829Z,12.55
2019-03-11T15:20:59.137Z,12.32
2019-03-11T15:23:25.463Z,12.08
2019-03-11T15:25:51.761Z,11.82
2019-03-11T15:28:18.248Z,11.70
2019-03-11T15:30:44.541Z,11.73
2019-03-11T15:33:10.837Z,11.69
2019-03-11T15:35:37.211Z,11.61
2019-03-11T15:38:03.501Z,11.44
2019-03-11T15:40:29.826Z,11.33
2019-03-11T15:42:56.116Z,11.28
2019-03-11T15:45:22.441Z,11.32
2019-03-11T15:47:48.758Z,11.24
2019-03-11T15:50:15.061Z,11.22
2019-03-11T15:52:41.371Z,11.14
2019-03-11T15:55:07.742Z,11.09
2019-03-11T15:57:38.974Z,10.87
2019-03-11T16:00:00.388Z,10.84
2019-03-11T16:02:28.034Z,10.83
2019-03-11T16:04:54.342Z,10.82
2019-03-11T16:07:20.756Z,10.81
2019-03-11T16:09:47.017Z,10.67
2019-03-11T16:12:13.314Z,10.55
2019-03-11T16:14:48.919Z,10.53
2019-03-11T16:17:05.987Z,10.55
2019-03-11T16:19:32.242Z,10.83
2019-03-11T16:21:58.554Z,10.72
2019-03-11T16:24:24.873Z,10.75
2019-03-11T16:26:51.176Z,10.79
2019-03-11T16:29:17.509Z,10.62
2019-03-11T16:31:43.825Z,10.31
2019-03-11T16:34:10.138Z,10.13
2019-03-11T16:36:36.590Z,9.95
2019-03-11T16:39:02.930Z,9.91
2019-03-11T16:41:29.205Z,9.75
2019-03-11T16:43:55.515Z,9.75
2019-03-11T16:46:21.830Z,9.72
2019-03-11T16:48:48.263Z,9.69
2019-03-11T16:51:17.062Z,9.54
2019-03-11T16:53:43.389Z,9.46
2019-03-11T16:56:09.684Z,9.38
2019-03-11T16:58:36.016Z,9.36
2019-03-11T17:01:02.323Z,9.23
2019-03-11T17:03:28.642Z,9.17
2019-03-11T17:05:55.482Z,9.08
2019-03-11T17:08:21.750Z,9.06
2019-03-11T17:10:48.056Z,8.98
2019-03-11T17:13:14.381Z,8.98
2019-03-11T17:15:40.686Z,8.79
2019-03-11T17:18:06.999Z,8.72
2019-03-11T17:20:33.302Z,8.59
2019-03-11T17:22:59.527Z,8.60
2019-03-11T17:25:25.845Z,8.60
2019-03-11T17:27:53.128Z,8.41
2019-03-11T17:30:19.382Z,8.35
2019-03-11T17:32:45.719Z,8.28
2019-03-11T17:35:14.790Z,8.19
2019-03-11T17:37:41.097Z,8.16
2019-03-11T17:40:07.402Z,8.12
2019-03-11T17:42:33.709Z,7.52
2019-03-11T17:45:00.027Z,7.14
2019-03-11T17:47:26.333Z,6.83
2019-03-11T17:49:52.648Z,6.66
2019-03-11T17:52:18.954Z,6.61
2019-03-11T17:54:45.264Z,6.66
2019-03-11T17:57:11.571Z,6.61
2019-03-11T17:59:37.902Z,6.60
2019-03-11T18:02:04.268Z,6.54
2019-03-11T18:04:30.544Z,6.56
2019-03-11T18:06:56.953Z,6.56
2019-03-11T18:09:23.246Z,6.43
2019-03-11T18:11:49.560Z,6.43
2019-03-11T18:14:15.901Z,6.43
2019-03-11T18:16:42.213Z,6.42
2019-03-11T18:19:08.517Z,6.44
2019-03-11T18:21:34.820Z,6.37
2019-03-11T18:24:01.123Z,6.35
2019-03-11T18:26:27.494Z,6.38
2019-03-11T18:28:53.823Z,6.29
2019-03-11T18:31:20.124Z,6.30
2019-03-11T18:33:46.448Z,6.24
2019-03-11T18:36:12.743Z,6.23
2019-03-11T18:38:39.110Z,6.21
2019-03-11T18:41:05.392Z,6.13
2019-03-11T18:43:42.082Z,6.13
2019-03-11T18:45:58.001Z,6.18
2019-03-11T18:48:24.303Z,6.18
2019-03-11T18:50:50.649Z,6.18
2019-03-11T18:53:19.346Z,6.25
2019-03-11T18:55:43.262Z,6.27
2019-03-11T18:58:09.589Z,6.34
2019-03-11T19:00:36.162Z,6.39
2019-03-11T19:03:02.616Z,6.38
2019-03-11T19:05:30.870Z,6.52
2019-03-11T19:07:55.627Z,6.52
2019-03-11T19:10:21.858Z,6.52
2019-03-11T19:12:48.163Z,6.49
2019-03-11T19:15:14.630Z,6.48
2019-03-11T19:17:41.386Z,6.52
2019-03-11T19:20:07.712Z,6.52
2019-03-11T19:22:33.997Z,6.48
2019-03-11T19:25:00.348Z,6.39
2019-03-11T19:27:26.656Z,6.36
2019-03-11T19:29:52.959Z,6.39
2019-03-11T19:32:19.299Z,6.36
2019-03-11T19:34:45.585Z,6.39
2019-03-11T19:37:11.893Z,6.42
2019-03-11T19:39:38.207Z,6.41
2019-03-11T19:42:04.561Z,6.54
2019-03-11T19:44:30.888Z,6.73
2019-03-11T19:46:57.215Z,7.09
2019-03-11T19:49:23.531Z,7.29
2019-03-11T19:51:49.809Z,7.03
2019-03-11T19:54:16.115Z,6.65
2019-03-11T19:56:42.422Z,6.43
2019-03-11T19:59:08.819Z,6.41
2019-03-11T20:01:35.042Z,6.42
2019-03-11T20:04:01.451Z,6.34
2019-03-11T20:06:27.747Z,6.62
2019-03-11T20:08:54.065Z,6.56
2019-03-11T20:11:20.480Z,6.46
2019-03-11T20:13:46.698Z,6.47
2019-03-11T20:16:13.014Z,6.46
2019-03-11T20:18:39.328Z,6.46
2019-03-11T20:21:05.662Z,6.30
2019-03-11T20:23:31.985Z,6.22
2019-03-11T20:25:58.294Z,6.07
2019-03-11T20:28:24.665Z,5.99
2019-03-11T20:30:50.955Z,5.99
2019-03-11T20:33:17.215Z,5.99
2019-03-11T20:35:43.513Z,6.08
2019-03-11T20:38:09.925Z,5.94
2019-03-11T20:40:36.229Z,5.86
2019-03-11T20:43:02.523Z,5.82
2019-03-11T20:45:28.834Z,5.73
2019-03-11T20:47:55.147Z,5.75
2019-03-11T20:50:21.467Z,5.72
2019-03-11T20:52:47.866Z,5.65
2019-03-11T20:55:14.168Z,5.64
2019-03-11T20:57:40.476Z,5.63
2019-03-11T21:00:06.825Z,5.61
2019-03-11T21:02:33.172Z,5.63
2019-03-11T21:04:59.672Z,5.63
2019-03-11T21:07:25.917Z,5.59
2019-03-11T21:09:52.192Z,5.57
2019-03-11T21:12:18.557Z,5.58
2019-03-11T21:14:44.854Z,5.64
2019-03-11T21:17:11.164Z,5.67
2019-03-11T21:19:37.486Z,5.66
2019-03-11T21:22:03.768Z,5.71
2019-03-11T21:24:30.166Z,5.67
2019-03-11T21:26:56.417Z,5.69
2019-03-11T21:29:24.406Z,5.64
2019-03-11T21:31:49.053Z,5.67
2019-03-11T21:34:15.465Z,5.68
2019-03-11T21:36:41.788Z,5.64
2019-03-11T21:39:08.021Z,5.71
2019-03-11T21:41:34.306Z,5.64
2019-03-11T21:44:00.631Z,5.56
2019-03-11T21:46:27.013Z,5.58
2019-03-11T21:48:53.301Z,5.62
2019-03-11T21:51:19.588Z,5.53
2019-03-11T21:53:45.896Z,5.52
2019-03-11T21:56:12.223Z,5.47
2019-03-11T21:58:38.577Z,5.41
2019-03-11T22:01:04.933Z,5.43
2019-03-11T22:03:31.203Z,5.49
2019-03-11T22:05:57.516Z,5.51
2019-03-11T22:08:23.916Z,5.46
2019-03-11T22:10:50.129Z,5.50
2019-03-11T22:13:16.479Z,5.43
2019-03-11T22:15:42.808Z,5.46
2019-03-11T22:18:09.117Z,5.43
2019-03-11T22:20:35.421Z,5.38
2019-03-11T22:23:01.731Z,5.31
2019-03-11T22:25:28.037Z,5.27
2019-03-11T22:27:54.356Z,5.23
2019-03-11T22:30:20.670Z,5.26
2019-03-11T22:32:46.960Z,5.23
2019-03-11T22:35:13.490Z,5.16
2019-03-11T22:37:39.605Z,4.99
2019-03-11T22:40:06.167Z,4.96
2019-03-11T22:42:32.282Z,5.02
2019-03-11T22:44:58.586Z,5.10
2019-03-11T22:47:24.894Z,5.13
2019-03-11T22:49:51.214Z,5.07
2019-03-11T22:52:18.808Z,5.06
2019-03-11T22:54:43.829Z,5.11
2019-03-11T22:57:10.150Z,5.06
2019-03-11T22:59:36.452Z,4.96
2019-03-11T23:02:02.787Z,4.89
2019-03-11T23:04:29.093Z,4.88
2019-03-11T23:06:55.402Z,4.91
2019-03-11T23:09:21.747Z,4.92
2019-03-11T23:11:48.027Z,4.79
2019-03-11T23:14:14.337Z,4.75
2019-03-11T23:16:40.643Z,4.66
2019-03-11T23:19:07.054Z,4.59
2019-03-11T23:21:33.378Z,4.62
2019-03-11T23:23:59.687Z,4.71
2019-03-11T23:26:25.996Z,4.72
2019-03-11T23:28:52.312Z,4.70
2019-03-11T23:31:18.634Z,4.58
2019-03-11T23:33:44.953Z,4.58
2019-03-11T23:36:11.262Z,4.56
2019-03-11T23:38:37.570Z,4.57
2019-03-11T23:41:03.890Z,4.45
2019-03-11T23:43:30.198Z,4.39
2019-03-11T23:45:56.516Z,4.43
2019-03-11T23:48:22.823Z,4.50
2019-03-11T23:50:49.138Z,4.46
2019-03-11T23:53:15.453Z,4.51
2019-03-11T23:55:41.760Z,4.54
2019-03-11T23:58:08.074Z,4.54
